Time;durP1;ratioP1;P1;durP2;ratioP2;P2;SDS_P1;SDS_P2;PMS_P1;PMS_P2;Temp;Humidity;BMP_temperature;BMP_pressure;BME280_temperature;BME280_humidity;BME280_pressure;Samples;Min_cycle;Max_cycle;Signal;HPM_P1;HPM_P2
2022/07/11 00:02:04;;;;;;;2.50;2.03;;;;;;;23.38;45.70;99286.13;5013948;28;20100;-90
2022/07/11 00:04:30;;;;;;;1.63;1.52;;;;;;;23.32;45.90;99274.53;5014863;28;20022;-90
2022/07/11 00:06:57;;;;;;;2.75;1.80;;;;;;;22.78;45.51;99193.34;5014718;28;20105;-90
2022/07/11 00:09:22;;;;;;;2.67;1.70;;;;;;;22.94;45.74;99231.91;5030437;28;20112;-91
2022/07/11 00:11:48;;;;;;;1.58;1.48;;;;;;;23.17;45.82;99314.13;5013971;28;20086;-90
2022/07/11 00:14:14;;;;;;;3.65;1.75;;;;;;;21.94;45.73;99073.34;5013777;28;20582;-90
2022/07/11 00:16:40;;;;;;;2.55;1.90;;;;;;;22.71;45.58;99208.94;5013824;28;20483;-90
2022/07/11 00:19:05;;;;;;;2.78;1.70;;;;;;;21.66;45.63;99050.41;5015851;28;20026;-89
2022/07/11 00:21:31;;;;;;;2.00;1.80;;;;;;;23.03;45.50;99295.75;5032459;28;20026;-90
2022/07/11 00:23:57;;;;;;;2.70;1.80;;;;;;;22.26;45.56;99177.28;5014097;28;20561;-90
2022/07/11 00:26:22;;;;;;;2.38;1.60;;;;;;;23.04;45.42;99269.66;5030056;28;20017;-90
2022/07/11 00:28:48;;;;;;;2.22;1.50;;;;;;;23.01;45.29;99264.75;5013416;28;20041;-89
2022/07/11 00:31:13;;;;;;;2.17;1.80;;;;;;;22.97;45.39;99272.56;5014817;28;20048;-90
2022/07/11 00:33:39;;;;;;;3.47;1.65;;;;;;;22.22;45.36;99171.63;5029945;28;20025;-90
2022/07/11 00:36:05;;;;;;;2.30;1.73;;;;;;;22.55;45.35;99226.94;5014872;28;20045;-90
2022/07/11 00:38:30;;;;;;;4.70;1.80;;;;;;;22.73;45.19;99253.34;5015121;28;20050;-89
2022/07/11 00:40:56;;;;;;;3.10;2.08;;;;;;;22.07;44.96;99139.31;5027047;28;20064;-89
2022/07/11 00:43:32;;;;;;;1.90;1.80;;;;;;;22.81;44.80;99271.72;5050456;28;20061;-90
2022/07/11 00:45:58;;;;;;;1.70;1.50;;;;;;;22.12;45.06;99166.22;5021893;28;20072;-90
2022/07/11 00:48:24;;;;;;;4.28;1.50;;;;;;;22.74;44.90;99281.88;5015070;28;20026;-90
2022/07/11 00:50:50;;;;;;;2.60;1.92;;;;;;;22.74;44.98;99263.06;5029871;28;20541;-90
2022/07/11 00:53:17;;;;;;;1.60;1.50;;;;;;;21.64;44.69;99087.47;5013242;28;20018;-90
2022/07/11 00:55:42;;;;;;;3.03;1.90;;;;;;;21.67;44.65;99086.16;5012980;28;20057;-90
2022/07/11 00:58:08;;;;;;;3.85;1.63;;;;;;;22.07;44.64;99144.69;5013035;28;20101;-90
2022/07/11 01:00:33;;;;;;;2.35;1.60;;;;;;;22.51;44.44;99239.28;5012208;28;20032;-90
2022/07/11 01:02:59;;;;;;;3.58;1.77;;;;;;;22.03;44.61;99171.28;5013028;28;20022;-89
2022/07/11 01:05:24;;;;;;;2.00;1.70;;;;;;;22.74;44.40;99278.38;5012973;28;20022;-89
2022/07/11 01:07:50;;;;;;;2.90;1.80;;;;;;;21.90;44.71;99158.28;5012746;28;20521;-89
2022/07/11 01:10:16;;;;;;;2.92;1.77;;;;;;;21.50;44.64;99097.03;5013453;28;20073;-90
2022/07/11 01:12:41;;;;;;;3.63;1.65;;;;;;;21.47;44.60;99114.47;5012989;28;20064;-90
2022/07/11 01:15:10;;;;;;;1.70;1.60;;;;;;;22.01;44.67;99186.03;5012830;28;20033;-90
2022/07/11 01:17:35;;;;;;;2.38;1.60;;;;;;;21.76;44.94;99162.50;5012658;28;20017;-90
2022/07/11 01:20:01;;;;;;;1.90;1.80;;;;;;;22.07;44.58;99190.38;5012612;28;20021;-90
2022/07/11 01:22:28;;;;;;;1.95;1.85;;;;;;;22.60;44.61;99290.72;5013546;28;20018;-90
2022/07/11 01:24:55;;;;;;;1.80;1.65;;;;;;;22.57;44.68;99289.34;5013368;28;20022;-89
2022/07/11 01:27:22;;;;;;;3.22;1.60;;;;;;;22.31;44.76;99239.19;5012289;28;20279;-89
2022/07/11 01:29:48;;;;;;;4.78;1.90;;;;;;;22.27;44.58;99249.66;5013466;28;20022;-88
2022/07/11 01:32:13;;;;;;;2.10;1.90;;;;;;;21.72;44.73;99196.34;5013769;28;20021;-90
2022/07/11 01:34:39;;;;;;;1.77;1.60;;;;;;;22.31;44.64;99266.91;5013265;28;20030;-90
2022/07/11 01:37:04;;;;;;;2.33;1.80;;;;;;;22.58;44.64;99298.25;5012276;28;20115;-89
2022/07/11 01:39:30;;;;;;;2.08;1.88;;;;;;;22.26;44.61;99253.41;5012280;28;20022;-89
2022/07/11 01:41:58;;;;;;;2.85;1.80;;;;;;;22.51;44.66;99293.09;5012328;28;20025;-90
2022/07/11 01:44:24;;;;;;;2.25;1.77;;;;;;;22.19;44.59;99250.13;5012234;28;20029;-89
2022/07/11 01:46:50;;;;;;;1.98;1.52;;;;;;;22.11;44.47;99223.75;5012280;28;20018;-90
2022/07/11 01:49:15;;;;;;;2.25;1.73;;;;;;;21.81;44.58;99181.34;5012350;28;20469;-90
2022/07/11 01:51:41;;;;;;;1.70;1.60;;;;;;;22.07;44.57;99228.03;5028742;28;20164;-90
2022/07/11 01:54:07;;;;;;;2.13;1.75;;;;;;;22.52;44.76;99305.47;5012313;28;20017;-90
2022/07/11 01:56:33;;;;;;;1.80;1.70;;;;;;;21.68;44.68;99155.75;5012189;28;20041;-90
2022/07/11 01:58:59;;;;;;;1.70;1.60;;;;;;;21.39;44.77;99120.34;5012272;28;20018;-90
2022/07/11 02:01:25;;;;;;;1.95;1.85;;;;;;;22.57;44.64;99286.66;5012195;28;20022;-89
2022/07/11 02:03:50;;;;;;;2.63;1.95;;;;;;;22.36;44.72;99269.63;5012297;28;20109;-90
2022/07/11 02:06:16;;;;;;;2.00;1.80;;;;;;;21.80;44.70;99187.78;5012299;28;20014;-89
2022/07/11 02:08:42;;;;;;;1.70;1.60;;;;;;;22.36;44.95;99284.94;5011967;28;20040;-90
2022/07/11 02:11:07;;;;;;;4.80;2.10;;;;;;;22.40;44.64;99297.63;5014115;28;20096;-89
2022/07/11 02:13:33;;;;;;;2.05;1.65;;;;;;;22.15;44.54;99265.19;5019468;28;20060;-89
2022/07/11 02:15:58;;;;;;;3.38;1.85;;;;;;;22.34;44.66;99295.16;5035233;28;20021;-89
2022/07/11 02:18:24;;;;;;;1.83;1.73;;;;;;;22.03;44.55;99256.50;5019554;28;20025;-89
2022/07/11 02:20:50;;;;;;;2.20;1.70;;;;;;;22.05;44.36;99259.75;5019824;28;20028;-90
2022/07/11 02:23:17;;;;;;;2.28;2.08;;;;;;;22.01;44.40;99261.28;5019550;28;20029;-90
2022/07/11 02:25:43;;;;;;;2.53;2.00;;;;;;;21.95;44.57;99265.84;5019528;28;20048;-90
2022/07/11 02:28:09;;;;;;;2.55;1.60;;;;;;;21.00;44.66;99127.81;5019443;28;20082;-90
2022/07/11 02:30:36;;;;;;;2.50;1.90;;;;;;;22.16;44.59;99297.19;5018206;28;20026;-89
2022/07/11 02:33:01;;;;;;;2.00;1.90;;;;;;;22.09;44.68;99318.13;5019298;28;20053;-90
2022/07/11 02:35:27;;;;;;;2.50;1.83;;;;;;;21.60;44.79;99260.19;5018210;28;20018;-89
2022/07/11 02:37:52;;;;;;;1.77;1.67;;;;;;;21.08;44.91;99164.13;5023157;28;20029;-89
2022/07/11 02:40:18;;;;;;;3.28;2.17;;;;;;;20.80;44.94;99130.28;5032201;28;20089;-90
2022/07/11 02:42:43;;;;;;;2.30;1.65;;;;;;;21.25;44.91;99229.25;5058137;28;20037;-90
2022/07/11 02:45:10;;;;;;;3.63;2.10;;;;;;;21.98;44.88;99319.09;5021205;28;20109;-90
2022/07/11 02:47:38;;;;;;;3.17;2.05;;;;;;;21.73;44.81;99273.19;5019874;28;20026;-89
2022/07/11 02:50:05;;;;;;;2.28;2.00;;;;;;;21.54;44.81;99245.88;5019120;28;20112;-90
2022/07/11 02:52:31;;;;;;;2.22;1.80;;;;;;;21.01;44.95;99215.31;5018313;28;20030;-90
2022/07/11 02:54:56;;;;;;;2.78;1.80;;;;;;;21.67;44.63;99279.59;5018209;28;20022;-89
2022/07/11 02:57:22;;;;;;;2.00;1.90;;;;;;;21.14;44.70;99211.41;5017980;28;20038;-89
2022/07/11 02:59:47;;;;;;;2.97;1.90;;;;;;;21.69;44.51;99286.34;5017981;28;20195;-89
2022/07/11 03:02:13;;;;;;;3.38;1.83;;;;;;;21.76;44.54;99307.63;5019433;28;20040;-89
2022/07/11 03:04:39;;;;;;;2.00;1.77;;;;;;;21.30;44.79;99234.69;5019512;28;20551;-89
2022/07/11 03:07:05;;;;;;;3.45;2.05;;;;;;;21.79;44.72;99304.41;5018458;28;20037;-89
2022/07/11 03:09:30;;;;;;;2.22;1.75;;;;;;;21.79;44.34;99331.28;5018615;28;20097;-89
2022/07/11 03:11:56;;;;;;;2.05;1.77;;;;;;;21.91;44.78;99360.69;5018604;28;20079;-89
2022/07/11 03:14:21;;;;;;;2.55;1.95;;;;;;;21.66;44.66;99326.34;5018466;28;20112;-89
2022/07/11 03:16:46;;;;;;;2.22;1.80;;;;;;;21.48;44.57;99276.47;5018003;28;20101;-90
2022/07/11 03:19:12;;;;;;;2.25;1.73;;;;;;;21.34;44.63;99243.03;5018025;28;20410;-89
2022/07/11 03:21:37;;;;;;;2.78;1.83;;;;;;;21.09;44.61;99222.09;5017914;28;20022;-89
2022/07/11 03:24:03;;;;;;;2.80;1.70;;;;;;;21.69;44.87;99323.16;5014445;28;20022;-90
2022/07/11 03:26:28;;;;;;;3.83;1.75;;;;;;;21.24;45.02;99244.56;5014727;28;20026;-90
2022/07/11 03:28:54;;;;;;;3.38;1.80;;;;;;;21.17;44.97;99248.50;5014668;28;20025;-90
2022/07/11 03:31:19;;;;;;;2.83;1.77;;;;;;;21.15;45.12;99237.19;5015799;28;20025;-90
2022/07/11 03:33:45;;;;;;;1.75;1.58;;;;;;;21.33;45.12;99269.09;5014437;28;20433;-89
2022/07/11 03:36:10;;;;;;;2.20;1.83;;;;;;;21.79;45.04;99376.97;5015445;28;20414;-89
2022/07/11 03:38:37;;;;;;;2.25;2.15;;;;;;;21.43;45.18;99301.41;5015514;28;20025;-89
2022/07/11 03:41:03;;;;;;;2.55;1.80;;;;;;;21.60;45.10;99316.63;5014308;28;20025;-90
2022/07/11 03:43:29;;;;;;;2.28;1.67;;;;;;;21.61;45.21;99315.56;5014293;28;20091;-89
2022/07/11 03:45:55;;;;;;;2.55;2.03;;;;;;;21.35;45.41;99285.75;5015436;28;20034;-90
2022/07/11 03:48:21;;;;;;;2.55;1.90;;;;;;;21.55;45.52;99328.09;5015340;28;20033;-90
2022/07/11 03:50:47;;;;;;;2.33;2.10;;;;;;;21.33;45.46;99295.94;5015309;28;20026;-90
2022/07/11 03:53:13;;;;;;;4.78;2.15;;;;;;;21.70;45.50;99382.00;5030791;28;20069;-90
2022/07/11 03:55:39;;;;;;;3.90;2.30;;;;;;;21.58;45.64;99340.25;5015296;28;20495;-88
2022/07/11 03:58:05;;;;;;;3.40;2.30;;;;;;;21.32;45.66;99277.41;5014320;28;20402;-89
2022/07/11 04:00:31;;;;;;;3.55;2.55;;;;;;;21.39;45.62;99289.56;5014274;28;20030;-89
2022/07/11 04:02:57;;;;;;;2.60;2.03;;;;;;;21.25;45.71;99261.50;5015170;28;20084;-89
2022/07/11 04:05:22;;;;;;;2.38;2.00;;;;;;;21.84;45.51;99367.09;5030544;28;20109;-90
2022/07/11 04:07:48;;;;;;;2.88;2.03;;;;;;;21.65;45.84;99322.84;5014840;28;20113;-90
2022/07/11 04:10:13;;;;;;;3.97;2.08;;;;;;;21.75;45.65;99338.25;5014887;28;20056;-89
2022/07/11 04:12:39;;;;;;;3.88;2.00;;;;;;;20.83;45.63;99227.22;5016688;28;20014;-89
2022/07/11 04:15:06;;;;;;;3.65;1.80;;;;;;;21.97;45.36;99373.09;5014053;28;20018;-90
2022/07/11 04:17:32;;;;;;;3.42;1.85;;;;;;;21.67;45.41;99341.41;5013953;28;20487;-90
2022/07/11 04:19:58;;;;;;;3.20;1.90;;;;;;;21.59;45.43;99321.19;5013903;28;20052;-89
2022/07/11 04:22:24;;;;;;;2.20;1.75;;;;;;;20.52;45.40;99158.19;5030517;28;20018;-90
2022/07/11 04:24:49;;;;;;;2.00;1.90;;;;;;;21.21;45.28;99285.31;5014838;28;20026;-90
2022/07/11 04:27:15;;;;;;;2.28;1.80;;;;;;;21.98;45.33;99383.59;5015302;28;20087;-90
2022/07/11 04:29:40;;;;;;;2.30;1.90;;;;;;;21.09;45.26;99276.59;5016182;28;20026;-90
2022/07/11 04:32:06;;;;;;;2.30;2.10;;;;;;;21.37;45.13;99310.47;5040257;28;20057;-90
2022/07/11 04:34:31;;;;;;;2.75;2.00;;;;;;;20.80;45.35;99226.88;5032869;28;20006;-90
2022/07/11 04:36:57;;;;;;;1.80;1.70;;;;;;;21.31;45.09;99290.00;5028844;28;20439;-90
2022/07/11 04:39:22;;;;;;;2.20;2.00;;;;;;;21.43;45.18;99320.22;5015575;28;20105;-90
2022/07/11 04:41:48;;;;;;;2.20;2.00;;;;;;;21.35;45.30;99298.38;5014671;28;20022;-90
2022/07/11 04:44:13;;;;;;;4.38;2.17;;;;;;;21.92;45.18;99381.94;5014695;28;20490;-90
2022/07/11 04:46:39;;;;;;;2.75;1.70;;;;;;;21.18;45.38;99290.38;5014070;28;20026;-90
2022/07/11 04:49:04;;;;;;;4.22;1.80;;;;;;;21.76;45.24;99366.75;5014268;28;20110;-90
2022/07/11 04:51:30;;;;;;;2.25;1.90;;;;;;;21.60;45.10;99327.38;5013792;28;20469;-90
2022/07/11 04:53:55;;;;;;;2.40;2.20;;;;;;;21.49;45.09;99313.81;5013630;28;20026;-90
2022/07/11 04:56:20;;;;;;;4.15;2.17;;;;;;;22.13;45.02;99415.22;5013482;28;20049;-90
2022/07/11 04:58:46;;;;;;;3.05;2.30;;;;;;;20.07;45.12;99072.69;5014468;28;20100;-90
2022/07/11 05:01:11;;;;;;;4.45;2.05;;;;;;;21.45;44.94;99293.91;5013638;28;20041;-90
2022/07/11 05:03:37;;;;;;;2.30;2.10;;;;;;;21.96;44.81;99380.34;5013384;28;20025;-90
2022/07/11 05:06:04;;;;;;;2.00;1.80;;;;;;;21.55;44.68;99309.31;5013172;28;20096;-90
2022/07/11 05:08:30;;;;;;;3.08;1.73;;;;;;;21.62;44.60;99323.38;5013039;28;20026;-90
2022/07/11 05:10:56;;;;;;;2.33;1.77;;;;;;;22.24;44.65;99408.84;5030439;28;20473;-90
2022/07/11 05:13:22;;;;;;;2.97;1.80;;;;;;;20.77;44.37;99163.81;5014066;28;20018;-90
2022/07/11 05:15:47;;;;;;;1.83;1.50;;;;;;;21.62;44.55;99318.00;5014013;28;20029;-90
2022/07/11 05:18:13;;;;;;;3.47;1.90;;;;;;;21.93;44.40;99358.56;5012782;28;20087;-90
2022/07/11 05:20:39;;;;;;;2.05;1.85;;;;;;;21.69;44.46;99318.59;5014088;28;20022;-90
2022/07/11 05:23:04;;;;;;;1.92;1.70;;;;;;;22.15;44.34;99392.38;5013008;28;20495;-90
2022/07/11 05:25:29;;;;;;;2.13;1.85;;;;;;;21.69;44.39;99297.09;5013918;28;20542;-90
2022/07/11 05:27:55;;;;;;;3.95;2.15;;;;;;;22.08;44.48;99362.19;5013230;28;20033;-89
2022/07/11 05:30:20;;;;;;;3.17;2.03;;;;;;;22.38;44.52;99410.06;5014748;28;20026;-90
2022/07/11 05:32:46;;;;;;;3.15;1.85;;;;;;;22.41;44.27;99416.78;5014605;28;20022;-89
2022/07/11 05:35:11;;;;;;;4.40;1.92;;;;;;;22.46;44.06;99411.44;5014478;28;20029;-90
2022/07/11 05:37:37;;;;;;;3.00;1.80;;;;;;;21.34;43.97;99241.16;5020914;28;20074;-90
2022/07/11 05:40:53;;;;;;;2.25;1.67;;;;;;;22.43;44.17;99420.03;5033712;28;20030;-92
2022/07/11 05:43:18;;;;;;;3.15;1.77;;;;;;;22.32;44.18;99396.81;5036068;28;20113;-91
2022/07/11 05:45:44;;;;;;;3.83;1.85;;;;;;;22.48;44.37;99423.56;5039071;28;20027;-89
2022/07/11 05:48:09;;;;;;;2.67;1.95;;;;;;;22.49;43.86;99413.63;5020236;28;20025;-88
2022/07/11 05:50:35;;;;;;;2.97;2.55;;;;;;;21.61;43.61;99284.13;5029656;28;20073;-90
2022/07/11 05:53:02;;;;;;;3.85;2.00;;;;;;;21.54;43.47;99257.44;5043726;28;20025;-90
2022/07/11 05:55:28;;;;;;;3.03;1.70;;;;;;;22.24;43.05;99384.63;5042421;28;20078;-90
2022/07/11 05:57:53;;;;;;;5.65;2.25;;;;;;;22.66;43.13;99426.91;5019328;28;20056;-91
2022/07/11 06:00:19;;;;;;;3.15;2.05;;;;;;;22.01;42.77;99310.50;5017318;28;20109;-89
2022/07/11 06:02:47;;;;;;;4.07;1.85;;;;;;;22.21;42.24;99350.19;5032031;28;20025;-88
2022/07/11 06:05:12;;;;;;;3.53;2.17;;;;;;;22.59;42.09;99399.44;5033915;28;20068;-89
2022/07/11 06:10:22;;;;;;;3.40;1.90;;;;;;;22.88;41.81;99449.16;5034429;28;20120;-88
2022/07/11 06:12:47;;;;;;;2.10;1.55;;;;;;;21.86;41.43;99278.94;5035084;28;20450;-88
2022/07/11 06:15:12;;;;;;;4.20;1.83;;;;;;;22.76;40.98;99425.09;5024423;28;20088;-89
2022/07/11 06:17:38;;;;;;;2.78;1.52;;;;;;;22.96;40.95;99442.47;5025114;28;20061;-88
2022/07/11 06:20:04;;;;;;;6.13;2.35;;;;;;;22.06;40.46;99324.00;5057706;28;20105;-93
2022/07/11 06:22:29;;;;;;;3.70;1.45;;;;;;;21.85;40.46;99241.56;5058709;28;20021;-89
2022/07/11 06:25:23;;;;;;;2.15;1.55;;;;;;;23.12;40.47;99434.22;5027276;28;20029;-88
2022/07/11 06:27:48;;;;;;;2.92;2.60;;;;;;;23.24;40.32;99444.78;5024814;28;20041;-89
2022/07/11 06:30:14;;;;;;;7.93;1.92;;;;;;;21.88;40.24;99209.59;5023240;28;20025;-91
2022/07/11 06:32:39;;;;;;;2.42;2.17;;;;;;;22.82;39.84;99345.22;5017475;28;20025;-89
2022/07/11 06:35:07;;;;;;;2.75;1.75;;;;;;;23.42;39.25;99460.47;5027786;28;20033;-89
2022/07/11 06:37:33;;;;;;;5.57;3.83;;;;;;;22.50;38.85;99353.38;5028093;28;20104;-89
2022/07/11 06:39:58;;;;;;;4.97;2.72;;;;;;;22.22;38.85;99241.56;5018930;28;20494;-89
2022/07/11 06:42:24;;;;;;;4.80;3.22;;;;;;;23.25;38.51;99391.72;5016592;28;20022;-90
2022/07/11 06:44:50;;;;;;;5.15;3.88;;;;;;;22.31;38.04;99239.19;5029627;28;20022;-89
2022/07/11 06:47:15;;;;;;;4.45;2.45;;;;;;;23.24;38.28;99377.44;5012169;28;20409;-89
2022/07/11 06:49:40;;;;;;;3.10;2.10;;;;;;;22.87;38.10;99336.34;5021740;28;20029;-88
2022/07/11 06:52:06;;;;;;;4.57;1.70;;;;;;;23.35;38.23;99395.25;5016590;28;20018;-90
2022/07/11 06:54:31;;;;;;;2.45;2.03;;;;;;;23.09;38.06;99372.00;5015776;28;20479;-89
2022/07/11 06:56:57;;;;;;;2.47;1.65;;;;;;;23.37;37.63;99398.47;5021706;28;20509;-89
2022/07/11 06:59:22;;;;;;;3.88;1.80;;;;;;;23.75;37.50;99491.59;5021159;28;20033;-90
2022/07/11 07:01:47;;;;;;;4.72;2.20;;;;;;;23.46;37.31;99415.75;5041972;28;20022;-89
2022/07/11 07:04:13;;;;;;;2.35;1.95;;;;;;;23.43;37.53;99394.72;5027102;28;20010;-90
2022/07/11 07:06:39;;;;;;;3.38;2.10;;;;;;;23.57;37.21;99415.81;5016770;28;20083;-89
2022/07/11 07:09:04;;;;;;;3.38;1.90;;;;;;;22.92;37.12;99315.63;5029780;28;20026;-89
2022/07/11 07:11:30;;;;;;;3.55;1.73;;;;;;;23.91;36.97;99459.31;5021744;28;20030;-90
2022/07/11 07:13:55;;;;;;;2.92;1.80;;;;;;;22.58;37.19;99258.69;5038658;28;20021;-89
2022/07/11 07:16:20;;;;;;;1.73;1.50;;;;;;;23.84;37.05;99439.88;5045955;28;20025;-90
2022/07/11 07:18:48;;;;;;;2.42;1.40;;;;;;;24.01;36.90;99467.41;5035700;28;20014;-90
2022/07/11 07:21:13;;;;;;;4.97;2.50;;;;;;;23.55;37.29;99374.84;5018982;28;20116;-89
2022/07/11 07:23:39;;;;;;;3.47;2.05;;;;;;;24.20;36.74;99465.81;5028803;28;20029;-89
2022/07/11 07:26:04;;;;;;;2.58;1.50;;;;;;;23.07;36.68;99296.03;5036112;28;20028;-90
2022/07/11 07:28:31;;;;;;;2.47;2.25;;;;;;;23.72;36.51;99378.09;5016606;28;20497;-91
2022/07/11 07:31:04;;;;;;;4.75;1.65;;;;;;;22.04;36.20;99123.69;5018874;28;20060;-92
2022/07/11 07:33:29;;;;;;;4.30;2.60;;;;;;;24.35;36.09;99484.75;5016414;28;20096;-90
2022/07/11 07:35:55;;;;;;;5.13;1.98;;;;;;;24.39;35.67;99474.22;5039961;28;20501;-90
2022/07/11 07:38:20;;;;;;;4.85;2.35;;;;;;;23.47;35.67;99341.13;5040379;28;20047;-90
2022/07/11 07:40:46;;;;;;;3.42;2.00;;;;;;;23.89;35.27;99362.50;5034739;28;20460;-90
2022/07/11 07:43:11;;;;;;;3.58;1.65;;;;;;;24.53;35.29;99464.53;5035994;28;20017;-89
2022/07/11 07:45:36;;;;;;;6.90;2.33;;;;;;;24.43;35.26;99432.09;5015405;28;20026;-89
2022/07/11 07:48:02;;;;;;;4.32;2.20;;;;;;;24.32;35.16;99419.69;5017216;28;20087;-90
2022/07/11 07:50:28;;;;;;;3.83;2.80;;;;;;;24.90;34.89;99476.88;5034522;28;20017;-89
2022/07/11 07:52:54;;;;;;;1.60;1.27;;;;;;;24.32;34.06;99373.84;5032571;28;20029;-89
2022/07/11 07:55:19;;;;;;;2.47;2.22;;;;;;;25.00;33.83;99477.69;5043512;28;20029;-89
2022/07/11 07:57:45;;;;;;;2.85;1.95;;;;;;;24.26;33.83;99340.63;5019256;28;20038;-89
2022/07/11 08:03:02;;;;;;;7.82;2.15;;;;;;;25.17;34.02;99484.66;5033845;28;20042;-89
2022/07/11 08:05:28;;;;;;;3.13;2.83;;;;;;;24.87;33.93;99431.50;5024684;28;20036;-88
2022/07/11 08:07:53;;;;;;;3.35;1.90;;;;;;;25.20;33.92;99471.41;5019552;28;20038;-89
2022/07/11 08:10:19;;;;;;;2.63;1.50;;;;;;;24.42;33.61;99354.94;5036863;28;20457;-89
2022/07/11 08:12:45;;;;;;;1.92;1.00;;;;;;;25.26;33.43;99462.22;5054521;28;20021;-89
2022/07/11 08:15:10;;;;;;;2.58;1.50;;;;;;;25.29;33.47;99461.69;5058309;28;20021;-89
2022/07/11 08:17:36;;;;;;;3.70;1.38;;;;;;;25.26;33.03;99435.19;5031260;28;20025;-90
2022/07/11 08:20:02;;;;;;;2.83;1.27;;;;;;;24.90;32.81;99369.66;5038713;28;20025;-89
2022/07/11 08:22:27;;;;;;;4.20;2.28;;;;;;;25.11;33.08;99375.81;5031130;28;20108;-89
2022/07/11 08:24:53;;;;;;;2.88;2.53;;;;;;;25.09;32.64;99372.56;5017559;28;20026;-87
2022/07/11 08:27:21;;;;;;;6.03;1.35;;;;;;;25.49;32.74;99417.53;5015840;28;20041;-88
2022/07/11 08:29:47;;;;;;;2.40;1.17;;;;;;;25.80;32.34;99466.06;5016206;28;20026;-88
2022/07/11 08:32:12;;;;;;;3.63;2.10;;;;;;;25.49;32.33;99401.31;5033650;28;20040;-89
2022/07/11 08:34:38;;;;;;;2.50;1.40;;;;;;;25.73;32.42;99417.69;5030485;28;20029;-89
2022/07/11 08:37:03;;;;;;;2.95;1.55;;;;;;;25.36;32.38;99353.28;5032756;28;20033;-88
2022/07/11 08:39:29;;;;;;;4.43;2.10;;;;;;;26.22;32.22;99492.59;5028027;28;20072;-89
2022/07/11 08:41:54;;;;;;;7.55;1.55;;;;;;;24.45;32.39;99178.94;5014446;28;20100;-88
2022/07/11 08:44:20;;;;;;;2.83;1.45;;;;;;;25.86;32.01;99413.53;5031467;28;20414;-88
2022/07/11 08:46:45;;;;;;;4.72;2.53;;;;;;;26.12;31.99;99401.47;5021674;28;20044;-89
2022/07/11 08:49:12;;;;;;;3.75;3.38;;;;;;;25.79;31.68;99345.44;5031618;28;20039;-89
2022/07/11 08:51:37;;;;;;;3.53;2.28;;;;;;;26.60;31.13;99443.00;5054601;28;20032;-89
2022/07/11 08:54:04;;;;;;;3.05;1.20;;;;;;;26.46;30.67;99439.34;5027025;28;20026;-86
2022/07/11 08:56:30;;;;;;;117.53;11.98;;;;;;;25.45;30.32;99258.88;5024424;28;20053;-89
2022/07/11 08:58:59;;;;;;;34.03;5.53;;;;;;;26.03;30.43;99343.63;5019470;28;20129;-89
2022/07/11 09:01:34;;;;;;;3.22;2.58;;;;;;;26.40;30.07;99382.84;5014918;28;20083;-90
2022/07/11 09:04:01;;;;;;;3.78;1.50;;;;;;;27.08;30.28;99453.94;5033699;28;20021;-90
2022/07/11 09:06:27;;;;;;;1.95;1.17;;;;;;;27.22;30.03;99449.44;5033934;28;20526;-90
2022/07/11 09:09:00;;;;;;;2.80;1.70;;;;;;;26.92;30.19;99401.78;5034601;28;20116;-91
2022/07/11 09:11:26;;;;;;;4.10;1.42;;;;;;;26.73;29.42;99368.41;5035232;28;20026;-91
2022/07/11 09:13:51;;;;;;;4.60;2.00;;;;;;;27.04;29.51;99414.16;5025671;28;20037;-90
2022/07/11 09:16:19;;;;;;;4.18;1.90;;;;;;;27.49;29.50;99453.44;5015633;28;20029;-90
2022/07/11 09:18:44;;;;;;;2.38;1.80;;;;;;;27.55;29.02;99430.59;5014810;28;20105;-90
2022/07/11 09:26:47;;;;;;;1.95;1.77;;;;;;;27.59;28.80;99395.56;5016611;28;20512;-91
2022/07/11 09:29:15;;;;;;;3.20;1.30;;;;;;;27.63;28.02;99369.50;5015295;28;20048;-90
2022/07/11 09:31:42;;;;;;;4.80;1.25;;;;;;;27.90;27.58;99382.34;5014984;28;20032;-90
2022/07/11 09:34:09;;;;;;;5.13;1.33;;;;;;;28.35;27.09;99476.69;5013927;28;20025;-90
2022/07/11 09:36:37;;;;;;;2.22;1.05;;;;;;;28.36;27.24;99407.69;5027221;28;20025;-90
2022/07/11 09:39:04;;;;;;;1.95;1.05;;;;;;;28.22;27.05;99357.13;5035171;28;20063;-90
2022/07/11 09:41:37;;;;;;;2.10;1.75;;;;;;;28.89;27.19;99447.22;5034825;28;20021;-90
2022/07/11 09:44:28;;;;;;;1.63;1.30;;;;;;;29.12;26.27;99432.66;5032313;28;20036;-90
2022/07/11 09:46:56;;;;;;;4.43;1.60;;;;;;;28.64;26.44;99337.09;5008149;28;20037;-90
2022/07/11 09:49:36;;;;;;;4.15;1.00;;;;;;;28.94;25.03;99371.84;5012659;28;20079;-90
2022/07/11 09:52:13;;;;;;;4.07;2.78;;;;;;;28.68;26.41;99376.13;5013591;28;20113;-89
2022/07/11 09:54:58;;;;;;;5.57;2.22;;;;;;;28.94;25.78;99444.41;5017137;28;20053;-89
2022/07/11 09:57:35;;;;;;;1.35;1.25;;;;;;;28.67;26.09;99363.66;5025010;28;20399;-88
2022/07/11 10:00:03;;;;;;;3.10;1.00;;;;;;;28.62;25.76;99339.31;5040963;28;20025;-89
2022/07/11 10:02:28;;;;;;;2.17;1.30;;;;;;;29.60;25.83;99446.63;5038432;28;20029;-88
2022/07/11 10:04:54;;;;;;;3.67;1.92;;;;;;;28.74;25.59;99290.69;5027674;28;20025;-89
2022/07/11 10:07:19;;;;;;;3.38;1.10;;;;;;;29.29;25.21;99355.91;5014002;28;20022;-89
2022/07/11 10:09:45;;;;;;;1.60;1.40;;;;;;;29.86;24.72;99437.91;5012726;28;20025;-89
2022/07/11 10:12:10;;;;;;;1.50;1.10;;;;;;;29.74;24.30;99354.09;5015275;28;20034;-88
2022/07/11 10:14:37;;;;;;;1.95;1.30;;;;;;;29.99;24.14;99377.16;5021183;28;20096;-89
2022/07/11 10:17:11;;;;;;;1.33;1.23;;;;;;;30.45;23.59;99433.22;5031537;28;20108;-88
2022/07/11 10:19:43;;;;;;;1.85;1.20;;;;;;;30.84;23.51;99430.59;5031078;28;20036;-90
2022/07/11 10:22:35;;;;;;;3.83;0.80;;;;;;;30.81;22.07;99438.59;5025910;28;20033;-88
2022/07/11 10:25:13;;;;;;;4.18;1.30;;;;;;;30.99;22.33;99430.16;5017490;28;20392;-89
2022/07/11 10:27:56;;;;;;;3.75;1.17;;;;;;;31.09;22.37;99437.25;5013224;28;20026;-89
2022/07/11 10:30:40;;;;;;;3.63;1.10;;;;;;;31.02;22.84;99445.09;5015487;28;20025;-91
2022/07/11 10:33:06;;;;;;;2.70;1.02;;;;;;;29.73;22.88;99276.28;5030842;28;20026;-89
2022/07/11 10:35:31;;;;;;;2.10;1.17;;;;;;;30.58;22.75;99430.44;5037318;28;20032;-90
2022/07/11 10:37:58;;;;;;;2.92;0.90;;;;;;;30.37;22.61;99363.94;5034459;28;20009;-91
2022/07/11 10:40:45;;;;;;;0.98;0.77;;;;;;;31.32;22.14;99434.47;5022570;28;20034;-90
2022/07/11 10:43:12;;;;;;;3.10;0.98;;;;;;;31.27;22.90;99417.13;5015398;28;20018;-90
2022/07/11 10:46:19;;;;;;;2.08;1.10;;;;;;;31.18;20.86;99448.22;5020089;28;20045;-89
2022/07/11 10:48:58;;;;;;;1.02;0.93;;;;;;;31.12;21.69;99446.72;5036250;28;20465;-89
2022/07/11 10:51:45;;;;;;;2.17;1.50;;;;;;;31.45;22.21;99445.25;5034993;28;20021;-90
2022/07/11 10:54:19;;;;;;;2.70;1.25;;;;;;;31.44;21.50;99440.13;5038423;28;20025;-90
2022/07/11 10:57:09;;;;;;;1.50;1.08;;;;;;;31.24;21.04;99438.78;5050497;28;20053;-90
2022/07/11 10:59:55;;;;;;;1.80;0.90;;;;;;;31.08;21.06;99404.84;5036665;28;20017;-91
2022/07/11 11:02:20;;;;;;;2.28;0.80;;;;;;;30.98;21.53;99409.47;5029370;28;20030;-90
2022/07/11 11:04:52;;;;;;;6.63;1.30;;;;;;;30.08;21.19;99299.09;5017950;28;20076;-90
2022/07/11 11:07:46;;;;;;;2.40;1.20;;;;;;;31.57;20.89;99447.34;5019010;28;20503;-90
2022/07/11 11:10:18;;;;;;;1.65;1.38;;;;;;;31.93;20.35;99445.16;5026420;28;20042;-89
2022/07/11 11:13:14;;;;;;;2.92;1.38;;;;;;;32.23;19.76;99437.13;5014983;28;20025;-90
2022/07/11 11:15:45;;;;;;;1.45;0.80;;;;;;;32.27;20.30;99438.09;5015525;28;20026;-90
2022/07/11 11:18:23;;;;;;;1.33;1.20;;;;;;;32.40;20.54;99414.44;5031670;28;20021;-89
2022/07/11 11:21:01;;;;;;;1.70;1.02;;;;;;;32.51;19.58;99432.91;5025104;28;20025;-89
2022/07/11 11:23:31;;;;;;;2.42;1.20;;;;;;;32.67;19.77;99443.28;5015734;28;20026;-89
2022/07/11 11:26:23;;;;;;;4.32;1.23;;;;;;;32.33;19.95;99375.88;5021124;28;20017;-89
2022/07/11 11:28:59;;;;;;;2.25;1.00;;;;;;;32.72;20.01;99393.94;5021196;28;20041;-90
2022/07/11 11:31:26;;;;;;;2.97;1.23;;;;;;;32.36;19.42;99347.91;5038566;28;20113;-90
2022/07/11 11:33:52;;;;;;;4.90;2.42;;;;;;;31.95;19.31;99289.16;5030575;28;20040;-90
2022/07/11 11:36:20;;;;;;;1.77;1.10;;;;;;;32.49;19.72;99341.41;5019996;28;20022;-90
2022/07/11 11:38:49;;;;;;;0.85;0.85;;;;;;;32.32;20.20;99383.28;5015401;28;20045;-90
2022/07/11 11:41:22;;;;;;;1.95;1.13;;;;;;;32.63;19.52;99382.19;5015347;28;20552;-90
2022/07/11 11:43:48;;;;;;;3.90;1.17;;;;;;;32.39;19.73;99323.47;5014804;28;20065;-89
2022/07/11 11:46:14;;;;;;;1.63;1.10;;;;;;;32.66;19.39;99349.53;5016289;28;20022;-91
2022/07/11 11:48:45;;;;;;;1.83;1.40;;;;;;;33.14;19.02;99394.88;5015443;28;20514;-90